메인 페이지
METAR-TAF:

METAR-TAF

공항 :

케이프타운 국제공항

케이프타운, 남아프리카공화국

위도: 33-59S, 경도: 018-36E, 고도: 42m

현재 날씨관측

예보는 47분 전, 09:00시(UTC)에 발표되었습니다.
북서7kt풍과 풍을 오가는
온도 19°C
습도 64%
기압 1021 hPa
시정 10km 이상
고도 3000ft 상공 구름 많음

METAR: FACT 150900Z 32007KT 280V360 9999 BKN030 19/12 Q1021 NOSIG

시각: 11:47 (09:47 UTC)

예보

예보는 5 시간 47분 전, 04:00시(UTC)에 발표되었습니다.
예보 대상 시간: 15일 06시부터 16일 12시까지 (UTC)
서북서5kt
시정 10km 이상
고도 4000ft 상공 구름 보통
확률 40% :
일시적
15일 17시부터 15일 21시까지 (UTC)
15kt
고도 1200ft 상공 구름 많음
15일 2200시부터 (UTC)
남남동13kt
시정 10km 이상
1500m 미만 상공 구름 및 적란운 없음
확률 30% :
일시적
16일 10시부터 16일 12시까지 (UTC)
15kt, 순간 최대 풍속 25kt

TAF: FACT 150400Z 1506/1612 29005KT 9999 SCT040 PROB40 TEMPO 1517/1521 18015KT BKN012 FM152200 15013KT CAVOK PROB30 TEMPO 1610/1612 17015G25KT TX21/1512Z TN10/1604Z

4,000개 이상의 공항 관측 자료 및 예보 (METAR 및 TAF 보고).

지도상에서 검색 가능한 기상관측소가 노란 점과 빨간 점으로 표시되어 있습니다.

기상관측소 명을 보려면 표시 위로 마우스를 이동하세요.

날씨 관측과 예보를 보려면 클릭하세요.

지도 변경 : 확대하려면 엑스 표시가 있는 녹색 버튼, 축소하려면 빼기 표시가 있는 녹색 버튼, 다음 페이지의 지도를 보려면 녹색 화살표를 클릭하세요.


METAR-TAF: